Time;durP1;ratioP1;P1;durP2;ratioP2;P2;SDS_P1;SDS_P2;PMS_P1;PMS_P2;Temp;Humidity;BMP_temperature;BMP_pressure;BME280_temperature;BME280_humidity;BME280_pressure;Samples;Min_cycle;Max_cycle;Signal;HPM_P1;HPM_P2
2022/05/23 00:01:14;;;;;;;13.57;6.00;;;;;;;-145.45;100.00;62759.84;5332490;27;20044;-85
2022/05/23 00:03:49;;;;;;;9.93;6.63;;;;;;;-145.45;100.00;62759.84;5330282;27;20027;-85
2022/05/23 00:06:21;;;;;;;12.50;6.47;;;;;;;-145.45;100.00;62759.84;5337565;27;20024;-85
2022/05/23 00:08:55;;;;;;;10.32;6.40;;;;;;;-145.45;100.00;62759.84;5339258;27;20031;-85
2022/05/23 00:11:27;;;;;;;10.57;6.10;;;;;;;-145.45;100.00;62759.84;5321943;27;20488;-85
2022/05/23 00:14:07;;;;;;;9.13;6.10;;;;;;;-145.45;100.00;62759.84;5301624;27;20116;-85
2022/05/23 00:16:50;;;;;;;12.48;7.00;;;;;;;-145.45;100.00;62759.84;5291648;27;21650;-85
2022/05/23 00:19:22;;;;;;;10.60;6.50;;;;;;;-145.45;100.00;62759.84;5294211;28;20032;-82
2022/05/23 00:21:55;;;;;;;17.60;7.75;;;;;;;-145.45;100.00;62759.84;5283493;28;20066;-85
2022/05/23 00:24:30;;;;;;;9.85;5.80;;;;;;;-145.45;100.00;62759.84;5318436;27;20024;-84
2022/05/23 00:27:06;;;;;;;12.70;6.70;;;;;;;-145.45;100.00;62759.84;5312269;27;20103;-85
2022/05/23 00:29:50;;;;;;;9.77;7.30;;;;;;;-145.45;100.00;62759.84;5314587;27;20099;-85
2022/05/23 00:35:29;;;;;;;13.02;7.80;;;;;;;-145.45;100.00;62759.84;5312658;27;20480;-85
2022/05/23 00:38:00;;;;;;;12.45;6.75;;;;;;;-145.45;100.00;62759.84;5295692;28;20116;-85
2022/05/23 00:43:13;;;;;;;13.20;7.43;;;;;;;-145.45;100.00;62759.84;5313149;27;20031;-85
2022/05/23 00:43:52;;;;;;;11.55;7.13;;;;;;;-145.45;100.00;62759.84;5309615;27;20032;-84
2022/05/23 00:46:24;;;;;;;11.27;7.22;;;;;;;-145.45;100.00;62759.84;5311349;27;20035;-85
2022/05/23 00:49:01;;;;;;;16.00;8.60;;;;;;;-145.45;100.00;62759.84;5313308;27;20025;-83
2022/05/23 00:51:32;;;;;;;14.23;8.27;;;;;;;-145.45;100.00;62759.84;5297913;27;20608;-85
2022/05/23 00:54:05;;;;;;;11.43;7.75;;;;;;;-145.45;100.00;62759.84;5291612;28;20104;-85
2022/05/23 00:56:43;;;;;;;9.63;7.35;;;;;;;-145.45;100.00;62759.84;5311854;27;20035;-84
2022/05/23 00:59:28;;;;;;;13.20;7.57;;;;;;;-145.45;100.00;62759.84;5292150;28;20468;-84
2022/05/23 01:02:03;;;;;;;10.25;7.18;;;;;;;-145.45;100.00;62759.84;5292808;28;20462;-85
2022/05/23 01:04:34;;;;;;;10.52;7.65;;;;;;;-145.45;100.00;62759.84;5294004;27;20028;-85
2022/05/23 01:07:06;;;;;;;11.02;7.53;;;;;;;-145.45;100.00;62759.84;5292016;27;20024;-85
2022/05/23 01:09:38;;;;;;;15.35;8.07;;;;;;;-145.45;100.00;62759.84;5303845;27;20046;-85
2022/05/23 01:12:10;;;;;;;12.05;7.88;;;;;;;-145.45;100.00;62759.84;5332795;27;20412;-85
2022/05/23 01:14:58;;;;;;;11.48;7.95;;;;;;;-145.45;100.00;62759.84;5329940;27;20024;-85
2022/05/23 01:17:29;;;;;;;11.23;8.05;;;;;;;-145.45;100.00;62759.84;5334210;27;20445;-85
2022/05/23 01:20:01;;;;;;;13.27;7.70;;;;;;;-145.45;100.00;62759.84;5333345;27;20046;-85
2022/05/23 01:22:32;;;;;;;15.80;7.85;;;;;;;-145.45;100.00;62759.84;5335611;27;20039;-85
2022/05/23 01:25:18;;;;;;;10.93;6.90;;;;;;;-145.45;100.00;62759.84;5331554;27;20048;-84
2022/05/23 01:27:52;;;;;;;14.32;7.63;;;;;;;-145.45;100.00;62759.84;5352906;27;20051;-85
2022/05/23 01:30:24;;;;;;;13.18;8.07;;;;;;;-145.45;100.00;62759.84;5333173;27;20039;-85
2022/05/23 01:32:55;;;;;;;11.38;7.82;;;;;;;-145.45;100.00;62759.84;5328378;27;20107;-85
2022/05/23 01:35:27;;;;;;;11.63;7.65;;;;;;;-145.45;100.00;62759.84;5333872;27;20019;-85
2022/05/23 01:37:58;;;;;;;10.75;7.28;;;;;;;-145.45;100.00;62759.84;5337659;27;20027;-85
2022/05/23 01:40:30;;;;;;;11.65;7.15;;;;;;;-145.45;100.00;62759.84;5335813;27;20035;-85
2022/05/23 01:43:02;;;;;;;12.55;8.13;;;;;;;-145.45;100.00;62759.84;5338084;27;20118;-84
2022/05/23 01:45:37;;;;;;;12.65;7.50;;;;;;;-145.45;100.00;62759.84;5357082;27;20020;-84
2022/05/23 01:48:08;;;;;;;16.48;8.25;;;;;;;-145.45;100.00;62759.84;5351831;27;20044;-84
2022/05/23 01:50:40;;;;;;;12.60;7.82;;;;;;;-145.45;100.00;62759.84;5337158;27;20038;-83
2022/05/23 01:53:11;;;;;;;12.05;7.55;;;;;;;-145.45;100.00;62759.84;5345638;27;20041;-84
2022/05/23 01:55:43;;;;;;;15.18;8.23;;;;;;;-145.45;100.00;62759.84;5340402;27;20028;-84
2022/05/23 01:58:14;;;;;;;12.07;8.00;;;;;;;-145.45;100.00;62759.84;5332579;27;20058;-81
2022/05/23 02:03:35;;;;;;;12.57;8.13;;;;;;;-145.45;100.00;62759.84;5333527;27;20970;-84
2022/05/23 02:06:06;;;;;;;16.92;8.85;;;;;;;-145.45;100.00;62759.84;5337178;27;20039;-84
2022/05/23 02:08:39;;;;;;;14.02;8.32;;;;;;;-145.45;100.00;62759.84;5337612;27;20073;-84
2022/05/23 02:11:10;;;;;;;12.82;8.35;;;;;;;-145.45;100.00;62759.84;5315571;27;20044;-85
2022/05/23 02:13:44;;;;;;;14.35;9.63;;;;;;;-145.45;100.00;62759.84;5317025;27;20781;-84
2022/05/23 02:16:21;;;;;;;13.85;9.40;;;;;;;-145.45;100.00;62759.84;5291291;27;20043;-84
2022/05/23 02:18:52;;;;;;;16.65;9.20;;;;;;;-145.45;100.00;62759.84;5318831;27;20089;-83
2022/05/23 02:21:23;;;;;;;12.32;9.50;;;;;;;-145.45;100.00;62759.84;5316224;27;20028;-85
2022/05/23 02:23:54;;;;;;;14.07;9.85;;;;;;;-145.45;100.00;62759.84;5315217;27;20052;-84
2022/05/23 02:26:26;;;;;;;11.88;9.95;;;;;;;-145.45;100.00;62759.84;5316025;27;20054;-85
2022/05/23 02:28:57;;;;;;;15.95;9.65;;;;;;;-145.45;100.00;62759.84;5299926;27;20119;-83
2022/05/23 02:31:29;;;;;;;13.27;9.90;;;;;;;-145.45;100.00;62759.84;5317456;27;20028;-85
2022/05/23 02:34:01;;;;;;;17.67;9.82;;;;;;;-145.45;100.00;62759.84;5319280;27;20103;-85
2022/05/23 02:36:32;;;;;;;12.43;9.05;;;;;;;-145.45;100.00;62759.84;5296216;28;20055;-85
2022/05/23 02:39:04;;;;;;;17.48;9.60;;;;;;;-145.45;100.00;62759.84;5292313;27;20357;-83
2022/05/23 02:41:36;;;;;;;13.82;9.70;;;;;;;-145.45;100.00;62759.84;5314857;27;20032;-85
2022/05/23 02:44:08;;;;;;;15.02;10.45;;;;;;;-145.45;100.00;62759.84;5295523;27;20034;-85
2022/05/23 02:46:39;;;;;;;15.90;9.95;;;;;;;-145.45;100.00;62759.84;5288951;28;20107;-85
2022/05/23 02:49:12;;;;;;;14.65;9.45;;;;;;;-145.45;100.00;62759.84;5291855;27;20178;-85
2022/05/23 02:51:43;;;;;;;12.63;10.15;;;;;;;-145.45;100.00;62759.84;5292216;28;20024;-84
2022/05/23 02:54:14;;;;;;;16.08;9.77;;;;;;;-145.45;100.00;62759.84;5292777;27;20521;-83
2022/05/23 02:56:49;;;;;;;13.45;9.13;;;;;;;-145.45;100.00;62759.84;5308949;27;20090;-83
2022/05/23 02:59:20;;;;;;;19.65;10.15;;;;;;;-145.45;100.00;62759.84;5287417;27;20373;-83
2022/05/23 03:04:42;;;;;;;12.52;9.65;;;;;;;-145.45;100.00;62759.84;5308730;27;20044;-83
2022/05/23 03:07:16;;;;;;;13.93;9.75;;;;;;;-145.45;100.00;62759.84;5288488;28;20024;-83
2022/05/23 03:09:47;;;;;;;14.18;9.90;;;;;;;-145.45;100.00;62759.84;5305934;27;20044;-83
2022/05/23 03:12:19;;;;;;;14.02;9.73;;;;;;;-145.45;100.00;62759.84;5308711;27;20579;-83
2022/05/23 03:14:52;;;;;;;16.63;10.15;;;;;;;-145.45;100.00;62759.84;5309122;27;20221;-83
2022/05/23 03:17:23;;;;;;;12.90;9.10;;;;;;;-145.45;100.00;62759.84;5288428;27;20025;-83
2022/05/23 03:19:55;;;;;;;18.33;9.80;;;;;;;-145.45;100.00;62759.84;5311343;27;20384;-83
2022/05/23 03:28:13;;;;;;;19.38;9.07;;;;;;;-145.45;100.00;62759.84;5314749;27;20044;-84
2022/05/23 03:30:45;;;;;;;13.85;9.10;;;;;;;-145.45;100.00;62759.84;5286509;27;20035;-83
2022/05/23 03:33:16;;;;;;;12.02;9.73;;;;;;;-145.45;100.00;62759.84;5288309;28;20024;-83
2022/05/23 03:35:48;;;;;;;14.32;9.63;;;;;;;-145.45;100.00;62759.84;5292093;27;20048;-83
2022/05/23 03:38:22;;;;;;;14.73;9.25;;;;;;;-145.45;100.00;62759.84;5305945;27;20032;-84
2022/05/23 03:40:54;;;;;;;19.25;9.50;;;;;;;-145.45;100.00;62759.84;5314144;27;20033;-83
2022/05/23 03:43:25;;;;;;;14.50;9.65;;;;;;;-145.45;100.00;62759.84;5295250;27;20417;-84
2022/05/23 03:46:04;;;;;;;17.35;10.35;;;;;;;-145.45;100.00;62759.84;5293772;27;20043;-84
2022/05/23 03:48:36;;;;;;;13.60;9.45;;;;;;;-145.45;100.00;62759.84;5310885;27;20028;-84
2022/05/23 03:51:08;;;;;;;19.20;10.40;;;;;;;-145.45;100.00;62759.84;5297655;27;20515;-84
2022/05/23 03:53:39;;;;;;;13.52;9.82;;;;;;;-145.45;100.00;62759.84;5292011;27;20028;-84
2022/05/23 03:56:14;;;;;;;16.27;10.95;;;;;;;-145.45;100.00;62759.84;5297158;27;20589;-84
2022/05/23 03:58:48;;;;;;;15.07;10.57;;;;;;;-145.45;100.00;62759.84;5298646;27;20048;-84
2022/05/23 04:01:24;;;;;;;17.20;10.25;;;;;;;-145.45;100.00;62759.84;5279912;28;20028;-84
2022/05/23 04:03:58;;;;;;;14.80;10.68;;;;;;;-145.45;100.00;62759.84;5293939;28;20021;-84
2022/05/23 04:06:29;;;;;;;13.93;10.38;;;;;;;-145.45;100.00;62759.84;5293939;27;20167;-84
2022/05/23 04:09:01;;;;;;;14.75;10.35;;;;;;;-145.45;100.00;62759.84;5312387;27;20065;-83
2022/05/23 04:11:41;;;;;;;14.23;10.57;;;;;;;-145.45;100.00;62759.84;5308594;27;20044;-84
2022/05/23 04:14:19;;;;;;;17.20;10.68;;;;;;;-145.45;100.00;62759.84;5311037;27;20047;-84
2022/05/23 04:16:57;;;;;;;13.52;10.82;;;;;;;-145.45;100.00;62759.84;5313973;27;20711;-85
2022/05/23 04:19:40;;;;;;;15.75;11.45;;;;;;;-145.45;100.00;62759.84;5296081;28;20051;-84
2022/05/23 04:22:12;;;;;;;14.90;10.68;;;;;;;-145.45;100.00;62759.84;5292692;27;20036;-84
2022/05/23 04:24:51;;;;;;;13.13;10.05;;;;;;;-145.45;100.00;62759.84;5293380;28;20023;-85
2022/05/23 04:27:29;;;;;;;14.85;10.27;;;;;;;-145.45;100.00;62759.84;5295450;27;20111;-84
2022/05/23 04:30:10;;;;;;;16.50;9.98;;;;;;;-145.45;100.00;62759.84;5316918;27;20082;-84
2022/05/23 04:35:37;;;;;;;12.07;9.45;;;;;;;-145.45;100.00;62759.84;5323626;27;20024;-84
2022/05/23 04:38:08;;;;;;;14.60;9.60;;;;;;;-145.45;100.00;62759.84;5305220;27;20016;-84
2022/05/23 04:40:39;;;;;;;11.70;9.82;;;;;;;-145.45;100.00;62759.84;5300251;27;20475;-84
2022/05/23 04:43:11;;;;;;;19.30;10.63;;;;;;;-145.45;100.00;62759.84;5301191;27;20047;-84
2022/05/23 04:45:43;;;;;;;14.43;10.00;;;;;;;-145.45;100.00;62759.84;5304215;28;20024;-84
2022/05/23 04:51:04;;;;;;;12.40;9.10;;;;;;;-145.45;100.00;62759.84;5315214;27;20024;-84
2022/05/23 04:53:39;;;;;;;14.02;9.02;;;;;;;-145.45;100.00;62759.84;5295022;27;20034;-84
2022/05/23 04:56:11;;;;;;;11.57;8.90;;;;;;;-145.45;100.00;62759.84;5299944;27;20173;-85
2022/05/23 04:58:43;;;;;;;14.65;8.93;;;;;;;-145.45;100.00;62759.84;5295563;27;20535;-85
2022/05/23 05:01:16;;;;;;;14.38;8.02;;;;;;;-145.45;100.00;62759.84;5298934;28;20032;-85
2022/05/23 05:03:53;;;;;;;11.23;7.43;;;;;;;-145.45;100.00;62759.84;5318731;27;20024;-85
2022/05/23 05:06:28;;;;;;;9.27;6.75;;;;;;;-145.45;100.00;62759.84;5297885;27;20498;-85
2022/05/23 05:08:59;;;;;;;14.40;8.38;;;;;;;-145.45;100.00;62759.84;5301246;27;20445;-84
2022/05/23 05:11:31;;;;;;;10.80;7.80;;;;;;;-145.45;100.00;62759.84;5299533;27;20044;-85
2022/05/23 05:14:05;;;;;;;9.30;7.93;;;;;;;-145.45;100.00;62759.84;5289354;28;20570;-85
2022/05/23 05:16:37;;;;;;;12.15;7.68;;;;;;;-145.45;100.00;62759.84;5296263;27;20051;-85
2022/05/23 05:19:09;;;;;;;10.00;7.53;;;;;;;-145.45;100.00;62759.84;5320931;27;20028;-85
2022/05/23 05:21:40;;;;;;;9.80;6.10;;;;;;;-145.45;100.00;62759.84;5315768;27;20021;-86
2022/05/23 05:24:12;;;;;;;12.65;7.82;;;;;;;-145.45;100.00;62759.84;5315404;27;20064;-85
2022/05/23 05:26:44;;;;;;;11.38;8.13;;;;;;;-145.45;100.00;62759.84;5297102;27;20127;-86
2022/05/23 05:29:19;;;;;;;12.65;8.07;;;;;;;-145.45;100.00;62759.84;5285998;27;21824;-85
2022/05/23 05:32:08;;;;;;;10.57;7.07;;;;;;;-145.45;100.00;62759.84;5294318;27;20065;-85
2022/05/23 05:34:54;;;;;;;11.10;7.63;;;;;;;-145.45;100.00;62759.84;5294768;28;20558;-85
2022/05/23 05:37:32;;;;;;;12.82;7.82;;;;;;;-145.45;100.00;62759.84;5296530;27;21098;-85
2022/05/23 05:40:06;;;;;;;9.60;7.65;;;;;;;-145.45;100.00;62759.84;5298397;28;20609;-86
2022/05/23 05:42:44;;;;;;;12.25;7.43;;;;;;;-145.45;100.00;62759.84;5317056;28;20634;-86
2022/05/23 05:45:25;;;;;;;12.23;7.88;;;;;;;-145.45;100.00;62759.84;5327884;28;20063;-85
2022/05/23 05:47:58;;;;;;;12.05;8.20;;;;;;;-145.45;100.00;62759.84;5328961;28;20028;-85
2022/05/23 05:50:35;;;;;;;8.45;7.47;;;;;;;-145.45;100.00;62759.84;5338052;28;20023;-85
2022/05/23 05:53:14;;;;;;;9.23;7.47;;;;;;;-145.45;100.00;62759.84;5300131;28;20032;-85
2022/05/23 05:55:47;;;;;;;12.88;7.70;;;;;;;-145.45;100.00;62759.84;5303667;27;20028;-85
2022/05/23 05:58:19;;;;;;;10.98;7.63;;;;;;;-145.45;100.00;62759.84;5304306;27;20115;-84
2022/05/23 06:00:50;;;;;;;17.92;7.75;;;;;;;-145.45;100.00;62759.84;5315601;27;20040;-84
2022/05/23 06:03:22;;;;;;;12.32;7.70;;;;;;;-145.45;100.00;62759.84;5300443;27;20118;-84
2022/05/23 06:11:33;;;;;;;9.60;6.97;;;;;;;-145.45;100.00;62759.84;5315563;27;20492;-84
2022/05/23 06:14:04;;;;;;;12.05;7.63;;;;;;;-145.45;100.00;62759.84;5314891;27;20073;-83
2022/05/23 06:16:37;;;;;;;16.92;7.53;;;;;;;-145.45;100.00;62759.84;5312149;27;20036;-84
2022/05/23 06:19:09;;;;;;;10.40;7.32;;;;;;;-145.45;100.00;62759.84;5317591;27;20036;-84
2022/05/23 06:21:40;;;;;;;10.43;6.97;;;;;;;-145.45;100.00;62759.84;5318017;27;20487;-84
2022/05/23 06:24:12;;;;;;;12.15;7.20;;;;;;;-145.45;100.00;62759.84;5316043;27;20464;-83
2022/05/23 06:26:44;;;;;;;10.95;7.15;;;;;;;-145.45;100.00;62759.84;5295792;27;20024;-84
2022/05/23 06:29:15;;;;;;;13.90;7.45;;;;;;;-145.45;100.00;62759.84;5320796;27;20016;-83
2022/05/23 06:31:49;;;;;;;12.30;7.18;;;;;;;-145.45;100.00;62759.84;5308493;27;20024;-83
2022/05/23 06:34:20;;;;;;;8.00;6.55;;;;;;;-145.45;100.00;62759.84;5320506;27;20484;-83
2022/05/23 06:36:52;;;;;;;10.73;7.22;;;;;;;-145.45;100.00;62759.84;5316205;27;20040;-83
2022/05/23 06:39:26;;;;;;;8.90;7.00;;;;;;;-145.45;100.00;62759.84;5304472;28;20016;-84
2022/05/23 06:41:57;;;;;;;12.63;6.95;;;;;;;-145.45;100.00;62759.84;5319143;28;20214;-83
2022/05/23 06:44:29;;;;;;;10.57;6.53;;;;;;;-145.45;100.00;62759.84;5307128;28;20107;-83
2022/05/23 06:47:07;;;;;;;10.07;6.90;;;;;;;-145.45;100.00;62759.84;5326045;27;20027;-83
2022/05/23 06:49:39;;;;;;;10.52;6.85;;;;;;;-145.45;100.00;62759.84;5324395;28;20031;-83
2022/05/23 06:52:10;;;;;;;9.23;6.75;;;;;;;-145.45;100.00;62759.84;5312564;28;20009;-84
2022/05/23 06:54:42;;;;;;;7.57;6.07;;;;;;;-145.45;100.00;62759.84;5315015;28;20051;-84
2022/05/23 06:57:13;;;;;;;9.52;6.00;;;;;;;-145.45;100.00;62759.84;5305555;28;20043;-84
2022/05/23 06:59:44;;;;;;;7.82;6.22;;;;;;;-145.45;100.00;62759.84;5286362;28;20082;-84
2022/05/23 07:02:16;;;;;;;8.40;6.57;;;;;;;-145.45;100.00;62759.84;5314974;28;20024;-83
2022/05/23 07:13:17;;;;;;;8.45;5.60;;;;;;;-145.45;100.00;62759.84;5303962;28;20472;-83
2022/05/23 07:15:48;;;;;;;9.38;5.20;;;;;;;-145.45;100.00;62759.84;5306821;28;20035;-83
2022/05/23 07:18:20;;;;;;;9.32;5.45;;;;;;;-145.45;100.00;62759.84;5272546;28;20032;-83
2022/05/23 07:20:51;;;;;;;9.45;5.10;;;;;;;-145.45;100.00;62759.84;5288503;28;20051;-83
2022/05/23 07:23:22;;;;;;;7.38;5.05;;;;;;;-145.45;100.00;62759.84;5289117;28;20378;-83
2022/05/23 07:25:54;;;;;;;7.95;5.00;;;;;;;-145.45;100.00;62759.84;5324916;28;20132;-83
2022/05/23 07:28:25;;;;;;;11.77;5.30;;;;;;;-145.45;100.00;62759.84;5299518;28;20111;-83
2022/05/23 07:30:56;;;;;;;9.50;5.97;;;;;;;-145.45;100.00;62759.84;5306555;28;20386;-83
2022/05/23 07:33:29;;;;;;;8.18;5.60;;;;;;;-145.45;100.00;62759.84;5313635;27;20096;-83
2022/05/23 07:36:01;;;;;;;10.50;5.32;;;;;;;-145.45;100.00;62759.84;5328194;28;20093;-83
2022/05/23 07:38:33;;;;;;;10.38;4.78;;;;;;;-145.45;100.00;62759.84;5327533;28;20016;-83
2022/05/23 07:41:07;;;;;;;11.75;5.50;;;;;;;-145.45;100.00;62759.84;5311501;28;20032;-82
2022/05/23 07:43:41;;;;;;;7.70;5.10;;;;;;;-145.45;100.00;62759.84;5306593;28;20435;-82
2022/05/23 07:46:14;;;;;;;8.02;5.15;;;;;;;-145.45;100.00;62759.84;5307986;27;20020;-82
2022/05/23 07:48:48;;;;;;;12.45;4.78;;;;;;;-145.45;100.00;62759.84;5308409;28;20048;-82
2022/05/23 07:51:23;;;;;;;6.68;4.35;;;;;;;-145.45;100.00;62759.84;5327176;28;20056;-82
2022/05/23 08:02:24;;;;;;;7.88;4.40;;;;;;;-145.45;100.00;62759.84;5316779;27;20040;-82
2022/05/23 08:04:55;;;;;;;7.82;4.10;;;;;;;-145.45;100.00;62759.84;5316171;27;20511;-82
2022/05/23 08:07:30;;;;;;;6.13;4.20;;;;;;;-145.45;100.00;62759.84;5315468;28;20020;-82
2022/05/23 08:10:02;;;;;;;8.02;4.15;;;;;;;-145.45;100.00;62759.84;5316325;28;20148;-82
2022/05/23 08:12:35;;;;;;;7.32;3.65;;;;;;;-145.45;100.00;62759.84;5339329;27;20035;-82
2022/05/23 08:15:07;;;;;;;5.88;3.50;;;;;;;-145.45;100.00;62759.84;5347915;27;20588;-82
2022/05/23 08:17:38;;;;;;;11.30;4.07;;;;;;;-145.45;100.00;62759.84;5348001;27;20027;-82
2022/05/23 08:20:10;;;;;;;12.90;4.47;;;;;;;-145.45;100.00;62759.84;5346578;27;20039;-82
2022/05/23 08:22:42;;;;;;;12.63;4.10;;;;;;;-145.45;100.00;62759.84;5348311;27;20024;-82
2022/05/23 08:25:13;;;;;;;6.80;4.10;;;;;;;-145.45;100.00;62759.84;5345583;27;20364;-81
2022/05/23 08:27:44;;;;;;;7.13;3.70;;;;;;;-145.45;100.00;62759.84;5348005;27;20472;-82
2022/05/23 08:30:16;;;;;;;7.45;4.03;;;;;;;-145.45;100.00;62759.84;5345897;27;20058;-81
2022/05/23 08:32:48;;;;;;;9.02;4.18;;;;;;;-145.45;100.00;62759.84;5348855;27;20096;-81
2022/05/23 08:35:21;;;;;;;11.25;4.68;;;;;;;-145.45;100.00;62759.84;5348121;27;20025;-82
2022/05/23 08:37:54;;;;;;;7.95;4.32;;;;;;;-145.45;100.00;62759.84;5346291;27;20136;-82
2022/05/23 08:40:48;;;;;;;7.88;4.20;;;;;;;-145.45;100.00;62759.84;5347673;27;20035;-81
2022/05/23 08:43:30;;;;;;;11.27;4.57;;;;;;;-145.45;100.00;62759.84;5348145;27;20105;-81
2022/05/23 08:46:02;;;;;;;12.68;4.80;;;;;;;-145.45;100.00;62759.84;5344797;27;20502;-82
2022/05/23 08:48:43;;;;;;;8.25;4.47;;;;;;;-145.45;100.00;62759.84;5338242;27;20035;-82
2022/05/23 08:51:35;;;;;;;11.05;4.35;;;;;;;-145.45;100.00;62759.84;5358373;27;20115;-81
2022/05/23 08:54:24;;;;;;;9.63;4.60;;;;;;;-145.45;100.00;62759.84;5345568;27;20035;-82
2022/05/23 08:56:58;;;;;;;8.32;4.38;;;;;;;-145.45;100.00;62759.84;5340278;27;20034;-83
2022/05/23 08:59:42;;;;;;;6.88;4.32;;;;;;;-145.45;100.00;62759.84;5344413;27;20122;-83
2022/05/23 09:02:22;;;;;;;8.63;4.43;;;;;;;-145.45;100.00;62759.84;5346339;27;20023;-83
2022/05/23 09:05:09;;;;;;;5.65;4.00;;;;;;;-145.45;100.00;62759.84;5346966;27;20165;-83
2022/05/23 09:07:48;;;;;;;8.98;4.18;;;;;;;-145.45;100.00;62759.84;5347536;27;20102;-82
2022/05/23 09:10:27;;;;;;;9.13;4.15;;;;;;;-145.45;100.00;62759.84;5346109;27;20138;-83
2022/05/23 09:12:58;;;;;;;8.68;3.92;;;;;;;-145.45;100.00;62759.84;5348491;27;20069;-83
2022/05/23 09:15:32;;;;;;;10.27;3.97;;;;;;;-145.45;100.00;62759.84;5346446;27;20019;-83
2022/05/23 09:18:12;;;;;;;10.43;3.90;;;;;;;-145.45;100.00;62759.84;5348265;27;20076;-83
2022/05/23 09:20:49;;;;;;;9.50;3.80;;;;;;;-145.45;100.00;62759.84;5353173;27;20060;-83
2022/05/23 09:23:28;;;;;;;;;;;;;;;-145.45;100.00;62759.84;5363914;27;20015;-83
2022/05/23 09:26:03;;;;;;;10.75;3.70;;;;;;;-145.45;100.00;62759.84;5364847;27;19923;-83
2022/05/23 09:28:38;;;;;;;7.88;3.75;;;;;;;-145.45;100.00;62759.84;5357837;27;20043;-83
2022/05/23 09:31:30;;;;;;;9.25;3.88;;;;;;;-145.45;100.00;62759.84;5351960;27;20016;-83
2022/05/23 09:34:03;;;;;;;9.63;3.92;;;;;;;-145.45;100.00;62759.84;5347387;27;20400;-83
2022/05/23 09:36:39;;;;;;;8.07;4.13;;;;;;;-145.45;100.00;62759.84;5348241;27;20483;-83
2022/05/23 09:39:11;;;;;;;9.00;4.25;;;;;;;-145.45;100.00;62759.84;5346775;27;20008;-83
2022/05/23 09:47:44;;;;;;;10.50;3.88;;;;;;;-145.45;100.00;62759.84;5340930;27;20031;-83
2022/05/23 09:50:30;;;;;;;10.93;4.10;;;;;;;-145.45;100.00;62759.84;5345641;27;20038;-83
2022/05/23 09:53:01;;;;;;;12.80;4.40;;;;;;;-145.45;100.00;62759.84;5332596;27;20057;-83
2022/05/23 09:55:35;;;;;;;8.23;3.92;;;;;;;-145.45;100.00;62759.84;5347243;27;20011;-83
2022/05/23 09:58:08;;;;;;;9.75;3.95;;;;;;;-145.45;100.00;62759.84;5353366;27;20515;-83
2022/05/23 10:01:01;;;;;;;12.38;3.88;;;;;;;-145.45;100.00;62759.84;5347283;27;20035;-83
2022/05/23 10:03:33;;;;;;;8.75;4.15;;;;;;;-145.45;100.00;62759.84;5345424;27;20177;-84
2022/05/23 10:06:12;;;;;;;6.75;3.70;;;;;;;-145.45;100.00;62759.84;5347025;27;20031;-84
2022/05/23 10:08:46;;;;;;;7.78;4.00;;;;;;;-145.45;100.00;62759.84;5337074;27;20024;-84
2022/05/23 10:11:25;;;;;;;8.80;4.22;;;;;;;-145.45;100.00;62759.84;5324425;27;20040;-84
2022/05/23 10:14:05;;;;;;;9.68;4.22;;;;;;;-145.45;100.00;62759.84;5325095;27;20107;-84
2022/05/23 10:16:50;;;;;;;8.88;3.70;;;;;;;-145.45;100.00;62759.84;5333725;27;20040;-83
2022/05/23 10:19:31;;;;;;;7.97;3.10;;;;;;;-145.45;100.00;62759.84;5348625;27;20028;-84
2022/05/23 10:22:22;;;;;;;6.03;3.58;;;;;;;-145.45;100.00;62759.84;5346855;27;20119;-84
2022/05/23 10:25:06;;;;;;;4.43;3.10;;;;;;;-145.45;100.00;62759.84;5346614;27;20023;-84
2022/05/23 10:27:47;;;;;;;7.40;3.30;;;;;;;-145.45;100.00;62759.84;5347057;27;20020;-84
2022/05/23 10:30:21;;;;;;;9.50;3.17;;;;;;;-145.45;100.00;62759.84;5345556;27;20546;-84
2022/05/23 10:33:16;;;;;;;5.28;3.08;;;;;;;-145.45;100.00;62759.84;5345516;27;20411;-84
2022/05/23 10:36:01;;;;;;;6.95;3.53;;;;;;;-145.45;100.00;62759.84;5344932;27;20031;-84
2022/05/23 10:45:03;;;;;;;6.30;2.92;;;;;;;-145.45;100.00;62759.84;5346947;27;20414;-84
2022/05/23 10:48:06;;;;;;;5.72;2.70;;;;;;;-145.45;100.00;62759.84;5317654;28;20044;-84
2022/05/23 10:51:08;;;;;;;7.18;3.15;;;;;;;-145.45;100.00;62759.84;5332216;27;20077;-84
2022/05/23 10:54:08;;;;;;;5.00;3.10;;;;;;;-145.45;100.00;62759.84;5337196;27;20024;-84
2022/05/23 10:56:55;;;;;;;8.70;3.35;;;;;;;-145.45;100.00;62759.84;5316398;27;20055;-84
2022/05/23 10:59:38;;;;;;;4.72;3.10;;;;;;;-145.45;100.00;62759.84;5337410;27;20024;-84
2022/05/23 11:02:34;;;;;;;6.13;2.70;;;;;;;-145.45;100.00;62759.84;5336823;27;20051;-84
2022/05/23 11:05:28;;;;;;;5.53;3.30;;;;;;;-145.45;100.00;62759.84;5335841;27;20352;-84
2022/05/23 11:08:11;;;;;;;5.60;3.00;;;;;;;-145.45;100.00;62759.84;5333465;27;20024;-84
2022/05/23 11:10:51;;;;;;;8.15;2.55;;;;;;;-145.45;100.00;62759.84;5325414;27;20036;-85
2022/05/23 11:13:28;;;;;;;8.30;2.75;;;;;;;-145.45;100.00;62759.84;5335502;28;20097;-83
2022/05/23 11:16:22;;;;;;;4.68;2.60;;;;;;;-145.45;100.00;62759.84;5311095;28;20104;-83
2022/05/23 11:19:20;;;;;;;7.05;2.30;;;;;;;-145.45;100.00;62759.84;5307794;28;20052;-84
2022/05/23 11:22:09;;;;;;;6.65;2.50;;;;;;;-145.45;100.00;62759.84;5321152;28;20038;-84
2022/05/23 11:24:50;;;;;;;4.38;2.50;;;;;;;-145.45;100.00;62759.84;5298703;27;20028;-84
2022/05/23 11:36:09;;;;;;;4.07;1.90;;;;;;;-145.45;100.00;62759.84;5317083;28;20040;-84
2022/05/23 11:38:45;;;;;;;3.42;1.70;;;;;;;-145.45;100.00;62759.84;5313999;28;20024;-83
2022/05/23 11:41:32;;;;;;;7.72;2.13;;;;;;;-145.45;100.00;62759.84;5284987;28;20116;-83
2022/05/23 11:44:34;;;;;;;5.15;1.95;;;;;;;-145.45;100.00;62759.84;5318821;28;20124;-84
2022/05/23 11:47:21;;;;;;;3.75;1.88;;;;;;;-145.45;100.00;62759.84;5311981;28;20045;-84
2022/05/23 11:50:06;;;;;;;4.20;2.47;;;;;;;-145.45;100.00;62759.84;5312270;28;20016;-83
2022/05/23 11:52:44;;;;;;;4.63;2.90;;;;;;;-145.45;100.00;62759.84;5295239;28;20040;-83
2022/05/23 11:55:53;;;;;;;3.90;2.28;;;;;;;-145.45;100.00;62759.84;5295289;28;20440;-83
2022/05/23 11:58:38;;;;;;;4.95;2.08;;;;;;;-145.45;100.00;62759.84;5308652;28;20032;-84
2022/05/23 12:01:14;;;;;;;3.38;2.10;;;;;;;-145.45;100.00;62759.84;5303205;28;20048;-84
2022/05/23 12:03:49;;;;;;;8.30;2.40;;;;;;;-145.45;100.00;62759.84;5299020;28;20434;-84
2022/05/23 12:06:23;;;;;;;4.72;2.50;;;;;;;-145.45;100.00;62759.84;5292145;28;20033;-84
2022/05/23 12:08:58;;;;;;;9.52;2.30;;;;;;;-145.45;100.00;62759.84;5311542;28;20116;-83
2022/05/23 12:11:32;;;;;;;4.82;2.20;;;;;;;-145.45;100.00;62759.84;5319528;28;20055;-84
2022/05/23 12:14:28;;;;;;;6.93;2.63;;;;;;;-145.45;100.00;62759.84;5305717;28;20044;-83
2022/05/23 12:17:09;;;;;;;5.65;2.22;;;;;;;-145.45;100.00;62759.84;5314469;28;20060;-83
2022/05/23 12:19:43;;;;;;;2.63;1.90;;;;;;;-145.45;100.00;62759.84;5301690;27;20028;-83
2022/05/23 12:22:37;;;;;;;4.43;2.42;;;;;;;-145.45;100.00;62759.84;5301405;28;20093;-84
2022/05/23 12:25:09;;;;;;;4.88;1.90;;;;;;;-145.45;100.00;62759.84;5297837;28;20051;-84
2022/05/23 12:27:43;;;;;;;7.15;2.08;;;;;;;-145.45;100.00;62759.84;5298292;28;20024;-84
2022/05/23 12:30:17;;;;;;;3.58;1.92;;;;;;;-145.45;100.00;62759.84;5301987;28;20055;-83
2022/05/23 12:32:57;;;;;;;7.57;1.92;;;;;;;-145.45;100.00;62759.84;5317427;28;20040;-84
2022/05/23 12:35:36;;;;;;;4.55;1.85;;;;;;;-145.45;100.00;62759.84;5302240;28;20039;-83
2022/05/23 12:38:26;;;;;;;3.58;1.60;;;;;;;-145.45;100.00;62759.84;5322091;28;20031;-84
2022/05/23 12:41:38;;;;;;;3.95;1.67;;;;;;;-145.45;100.00;62759.84;5299874;28;20036;-84
2022/05/23 12:44:18;;;;;;;7.72;1.90;;;;;;;-145.45;100.00;62759.84;5301818;28;20024;-84
2022/05/23 12:47:40;;;;;;;7.22;1.85;;;;;;;-145.45;100.00;62759.84;5305977;28;20032;-83
2022/05/23 12:50:29;;;;;;;4.40;2.00;;;;;;;-145.45;100.00;62759.84;5226309;28;20033;-84